Stations météo

réclame
Mon MeteoGroup
Monte S. Angelo, Italie (16258): Température de l'air & dewpoint: 06.12.2017 20:00:00 - 12.12.2017 20:00:00 (CET)Monte S. Angelo, Italie (16258): Vitesse du vent: 06.12.2017 20:00:00 - 12.12.2017 20:00:00 (CET)Monte S. Angelo, Italie (16258): Direction du vent: 06.12.2017 20:00:00 - 12.12.2017 20:00:00 (CET)Monte S. Angelo, Italie (16258): visibility: 06.12.2017 20:00:00 - 12.12.2017 20:00:00 (CET)
Date & Time tt [°C] td [°C] ff [km/h] ff [knt] dd vv [km]
12.12.2017 20:00:00 9,4 4,2 15 8 S 15
12.12.2017 19:00:00 9,2 3,8 18 10 S 15
12.12.2017 18:00:00 9,6 4,0 22 12 SSE 15
12.12.2017 17:00:00 10,0 4,8 24 13 SSE 15
12.12.2017 16:00:00 10,2 5,4 22 12 SSE 15
12.12.2017 15:00:00 10,4 5,2 24 13 SSE 15
12.12.2017 14:00:00 10,6 7,3 24 13 SSE 15
12.12.2017 13:00:00 9,6 6,7 28 15 SSE 15
12.12.2017 12:00:00 8,8 6,2 24 13 SSE 15
12.12.2017 11:00:00 9,0 5,4 29 16 SSE 15
12.12.2017 10:00:00 8,2 5,0 18 10 SSE 15
12.12.2017 09:00:00 8,0 5,5 28 15 SSE 20
12.12.2017 08:00:00 7,6 4,9 31 17 SSE 20
12.12.2017 07:00:00 7,6 4,9 26 14 SSE 20
12.12.2017 06:00:00 7,6 4,9 21 11 SE 20
12.12.2017 05:00:00 8,0 5,5 21 11 SE 20
12.12.2017 04:00:00 8,2 4,4 21 11 SE 20
12.12.2017 03:00:00 8,6 4,8 21 11 SE 20
12.12.2017 02:00:00 8,2 4,4 29 16 SSE 20
12.12.2017 01:00:00 8,4 4,8 28 15 SSE 20
12.12.2017 00:00:00 8,0 4,8 29 16 SSE 20
11.12.2017 23:00:00 7,4 5,0 24 13 SSE 20
11.12.2017 22:00:00 7,4 5,0 28 15 SSE 20
11.12.2017 21:00:00 7,2 5,4 35 19 SSE 20
11.12.2017 20:00:00 7,2 5,4 39 21 SSE 20
11.12.2017 19:00:00 6,2 5,9 37 20 SSE 20
11.12.2017 18:00:00 6,2 5,9 31 17 SSE 20
11.12.2017 17:00:00 6,2 5,9 35 19 SSE 20
11.12.2017 16:00:00 6,4 5,8 34 18 SSE 20
11.12.2017 15:00:00 6,6 5,9 22 12 SSE 20
11.12.2017 14:00:00 6,4 5,8 34 18 SSE 20
11.12.2017 13:00:00 6,2 5,5 28 15 SSE 20
11.12.2017 12:00:00 5,8 5,2 37 20 SSE 20
11.12.2017 11:00:00 5,4 4,4 41 22 SSE 20
11.12.2017 10:00:00 5,2 3,4 39 21 SSE 20
11.12.2017 09:00:00 4,8 3,0 41 22 SSE 20
11.12.2017 08:00:00 4,0 1,9 37 20 SSE 20
11.12.2017 07:00:00 4,0 1,9 34 18 SSE 20
11.12.2017 06:00:00 4,4 2,3 28 15 SSE 20
11.12.2017 05:00:00 4,4 2,3 24 13 SSE 20
11.12.2017 04:00:00 4,0 2,4 22 12 SSE 20
11.12.2017 03:00:00 3,2 1,7 35 19 SSE 20
11.12.2017 02:00:00 3,6 2,6 37 20 SSE 20
11.12.2017 01:00:00 3,0 1,8 29 16 SSE 20
11.12.2017 00:00:00 3,2 1,9 37 20 S 20
10.12.2017 23:00:00 2,8 1,3 21 11 S 20
10.12.2017 22:00:00 2,2 0,6 21 11 SSE 30
10.12.2017 21:00:00 2,0 -0,4 29 16 S 30
10.12.2017 20:00:00 2,2 -1,8 22 12 SSE 30
10.12.2017 19:00:00 2,2 -2,1 16 9 SSE 30
10.12.2017 18:00:00 2,2 -2,1 24 13 S 25
10.12.2017 17:00:00 2,2 -1,6 26 14 S 20
10.12.2017 16:00:00 2,4 -1,4 28 15 S 20
10.12.2017 15:00:00 3,0 -1,0 15 8 S 20
10.12.2017 14:00:00 3,0 -1,0 15 8 S 20
10.12.2017 13:00:00 2,0 -1,1 16 9 SSE 20
10.12.2017 12:00:00 1,0 -2,1 18 10 SSE 20
10.12.2017 11:00:00 0,2 -1,5 13 7 SSE 20
10.12.2017 10:00:00 0,0 -1,7 0 0 N 20
10.12.2017 09:00:00 -0,2 -1,6 0 0 N 20
10.12.2017 08:00:00 -1,0 -1,7 0 0 N 15
10.12.2017 07:00:00 -1,0 -1,7 9 5 WNW 10
10.12.2017 06:00:00 -1,0 -1,7 11 6 WNW -
10.12.2017 05:00:00 -1,0 -1,7 16 9 NW -
10.12.2017 04:00:00 -1,0 -1,7 22 12 NW 10
10.12.2017 03:00:00 - - - - - -
10.12.2017 02:00:00 -3,1 -3,8 24 13 NW -
10.12.2017 01:00:00 -1,0 -1,7 29 16 NW -
10.12.2017 00:00:00 -1,0 -1,7 28 15 NW -
09.12.2017 23:00:00 -0,8 -1,5 26 14 WNW -
09.12.2017 22:00:00 -1,0 -1,7 28 15 NW -
09.12.2017 21:00:00 -0,8 -1,5 0 0 N -
09.12.2017 20:00:00 0,0 -0,7 37 20 W -
09.12.2017 19:00:00 0,0 -0,7 34 18 WNW -
09.12.2017 18:00:00 -0,2 -0,9 35 19 NW -
09.12.2017 17:00:00 -0,2 -0,9 28 15 NW -
09.12.2017 16:00:00 0,0 -0,7 28 15 WNW -
09.12.2017 15:00:00 1,0 0,0 22 12 WNW -
09.12.2017 14:00:00 2,2 1,0 22 12 WNW -
09.12.2017 13:00:00 3,8 2,8 18 10 WNW -
09.12.2017 12:00:00 6,0 4,5 13 7 W -
09.12.2017 11:00:00 6,2 2,3 31 17 SSW 12
09.12.2017 10:00:00 5,6 4,9 39 21 S -
09.12.2017 09:00:00 5,8 5,5 22 12 SSE -
09.12.2017 08:00:00 6,0 5,7 28 15 S -
09.12.2017 07:00:00 5,8 5,5 21 11 S -
09.12.2017 06:00:00 6,2 5,2 22 12 SSE 10
09.12.2017 05:00:00 6,2 5,0 26 14 SSE 10
09.12.2017 04:00:00 6,4 3,9 26 14 SSE 10
09.12.2017 03:00:00 6,4 4,2 39 21 S 10
09.12.2017 02:00:00 6,4 4,1 44 24 S 10
09.12.2017 01:00:00 6,4 3,2 31 17 S 10
09.12.2017 00:00:00 6,0 5,7 39 21 S 10
08.12.2017 23:00:00 5,8 5,5 34 18 SSE 10
08.12.2017 22:00:00 5,8 3,8 34 18 SSE 10
08.12.2017 21:00:00 6,2 2,8 31 17 S 10
08.12.2017 20:00:00 5,6 3,3 37 20 S 10
08.12.2017 19:00:00 6,2 3,5 37 20 S 10
08.12.2017 18:00:00 6,8 4,0 35 19 S 10
08.12.2017 17:00:00 7,2 2,5 29 16 S 15
08.12.2017 16:00:00 7,2 2,3 24 13 S 20
08.12.2017 15:00:00 7,4 1,5 26 14 S 20
08.12.2017 14:00:00 8,4 2,2 34 18 S 20
08.12.2017 13:00:00 8,0 3,3 26 14 SSW 20
08.12.2017 12:00:00 7,0 2,7 29 16 S 20
08.12.2017 11:00:00 6,4 2,3 31 17 SSW 20
08.12.2017 10:00:00 6,0 0,7 21 11 SSW 20
08.12.2017 09:00:00 5,4 0,2 24 13 SW 20
08.12.2017 08:00:00 5,6 -1,5 22 12 WSW 20
08.12.2017 07:00:00 4,6 0,6 29 16 SW 20
08.12.2017 06:00:00 4,6 0,6 28 15 SW 20
08.12.2017 05:00:00 4,4 0,4 28 15 SW 20
08.12.2017 04:00:00 2,0 -1,8 15 8 SW 20
08.12.2017 03:00:00 4,4 -0,4 22 12 WSW 20
08.12.2017 02:00:00 4,8 -0,8 21 11 WSW 20
08.12.2017 01:00:00 5,0 -1,4 13 7 W 20
08.12.2017 00:00:00 4,6 0,4 13 7 WSW 20
07.12.2017 23:00:00 5,0 0,0 16 9 SW 20
07.12.2017 22:00:00 5,2 0,2 5 3 SW 20
07.12.2017 21:00:00 4,6 4,0 5 3 SSE 15
07.12.2017 20:00:00 4,6 3,7 8 4 SE 15
07.12.2017 19:00:00 5,6 -3,5 9 5 SSE 20
07.12.2017 18:00:00 5,8 -6,1 11 6 S 20
07.12.2017 17:00:00 6,0 -4,2 8 4 S 20
07.12.2017 16:00:00 6,8 4,1 4 2 S 20
07.12.2017 15:00:00 7,2 3,6 9 5 SSE 25
07.12.2017 14:00:00 7,6 2,5 8 4 S 25
07.12.2017 13:00:00 7,8 2,7 11 6 SSE 25
07.12.2017 12:00:00 7,6 2,3 9 5 SSE 25
07.12.2017 11:00:00 8,0 -1,0 5 3 SSE 25
07.12.2017 10:00:00 7,4 -5,3 2 1 S 25
07.12.2017 09:00:00 6,8 -6,9 0 0 N 25
07.12.2017 08:00:00 5,8 -10,4 4 2 SW 20
07.12.2017 07:00:00 6,0 -11,1 0 0 N 20
07.12.2017 06:00:00 5,4 -11,6 0 0 N 20
07.12.2017 05:00:00 6,2 -11,0 0 0 N 20
07.12.2017 04:00:00 6,6 -11,1 0 0 N 20
07.12.2017 03:00:00 7,0 -11,7 4 2 WSW 20
07.12.2017 02:00:00 6,6 -13,1 8 4 W 20
07.12.2017 01:00:00 6,8 -14,6 5 3 W 30
07.12.2017 00:00:00 6,2 -15,7 8 4 W 30
06.12.2017 23:00:00 6,6 -15,4 9 5 W 30
06.12.2017 22:00:00 6,4 -16,2 9 5 W 30
06.12.2017 21:00:00 6,4 -16,2 13 7 WNW 30
06.12.2017 20:00:00 6,4 -16,2 11 6 W 30

tt = Température de l'air
td = dewpoint
ff = Vitesse du vent
dd = Direction du vent
vv = visibility

stations d'obs. à proximité